sensor_id;sensor_type;location;lat;lon;timestamp;P1;durP1;ratioP1;P2;durP2;ratioP2
13959;SDS011;7052;51.050;3.716;2023-07-28T00:02:04;5.38;;;4.72;;
13959;SDS011;7052;51.050;3.716;2023-07-28T00:04:33;6.88;;;4.82;;
13959;SDS011;7052;51.050;3.716;2023-07-28T00:07:00;7.28;;;5.40;;
13959;SDS011;7052;51.050;3.716;2023-07-28T00:09:28;6.50;;;4.53;;
13959;SDS011;7052;51.050;3.716;2023-07-28T00:11:55;5.28;;;4.88;;
13959;SDS011;7052;51.050;3.716;2023-07-28T00:14:23;5.20;;;4.65;;
13959;SDS011;7052;51.050;3.716;2023-07-28T00:16:52;6.50;;;5.60;;
13959;SDS011;7052;51.050;3.716;2023-07-28T00:19:25;5.57;;;4.90;;
13959;SDS011;7052;51.050;3.716;2023-07-28T00:21:54;7.25;;;5.10;;
13959;SDS011;7052;51.050;3.716;2023-07-28T00:24:21;6.47;;;5.35;;
13959;SDS011;7052;51.050;3.716;2023-07-28T00:26:48;6.07;;;5.47;;
13959;SDS011;7052;51.050;3.716;2023-07-28T00:29:15;7.03;;;5.70;;
13959;SDS011;7052;51.050;3.716;2023-07-28T00:31:42;6.07;;;5.45;;
13959;SDS011;7052;51.050;3.716;2023-07-28T00:34:10;6.00;;;5.40;;
13959;SDS011;7052;51.050;3.716;2023-07-28T00:36:39;6.47;;;5.68;;
13959;SDS011;7052;51.050;3.716;2023-07-28T00:39:06;7.10;;;5.50;;
13959;SDS011;7052;51.050;3.716;2023-07-28T00:41:33;6.57;;;5.78;;
13959;SDS011;7052;51.050;3.716;2023-07-28T00:44:00;6.28;;;5.45;;
13959;SDS011;7052;51.050;3.716;2023-07-28T00:46:29;6.07;;;5.30;;
13959;SDS011;7052;51.050;3.716;2023-07-28T00:48:57;6.10;;;5.50;;
13959;SDS011;7052;51.050;3.716;2023-07-28T00:51:26;8.05;;;5.50;;
13959;SDS011;7052;51.050;3.716;2023-07-28T00:53:53;6.35;;;5.72;;
13959;SDS011;7052;51.050;3.716;2023-07-28T00:56:24;6.07;;;5.45;;
13959;SDS011;7052;51.050;3.716;2023-07-28T00:58:52;6.75;;;6.00;;
13959;SDS011;7052;51.050;3.716;2023-07-28T01:01:19;6.72;;;6.10;;
13959;SDS011;7052;51.050;3.716;2023-07-28T01:03:48;7.00;;;6.13;;
13959;SDS011;7052;51.050;3.716;2023-07-28T01:06:18;6.75;;;6.05;;
13959;SDS011;7052;51.050;3.716;2023-07-28T01:08:56;7.97;;;6.65;;
13959;SDS011;7052;51.050;3.716;2023-07-28T01:11:28;6.70;;;6.10;;
13959;SDS011;7052;51.050;3.716;2023-07-28T01:13:59;6.80;;;6.13;;
13959;SDS011;7052;51.050;3.716;2023-07-28T01:16:29;7.40;;;5.93;;
13959;SDS011;7052;51.050;3.716;2023-07-28T01:18:56;6.93;;;6.25;;
13959;SDS011;7052;51.050;3.716;2023-07-28T01:21:25;6.85;;;5.95;;
13959;SDS011;7052;51.050;3.716;2023-07-28T01:24:01;9.38;;;5.88;;
13959;SDS011;7052;51.050;3.716;2023-07-28T01:26:40;6.28;;;5.63;;
13959;SDS011;7052;51.050;3.716;2023-07-28T01:29:07;7.05;;;5.22;;
13959;SDS011;7052;51.050;3.716;2023-07-28T01:31:35;6.38;;;5.13;;
13959;SDS011;7052;51.050;3.716;2023-07-28T01:34:04;5.93;;;5.32;;
13959;SDS011;7052;51.050;3.716;2023-07-28T01:36:32;7.28;;;5.45;;
13959;SDS011;7052;51.050;3.716;2023-07-28T01:38:59;6.97;;;5.35;;
13959;SDS011;7052;51.050;3.716;2023-07-28T01:41:28;5.07;;;4.57;;
13959;SDS011;7052;51.050;3.716;2023-07-28T01:43:59;6.00;;;5.03;;
13959;SDS011;7052;51.050;3.716;2023-07-28T01:46:26;6.78;;;5.13;;
13959;SDS011;7052;51.050;3.716;2023-07-28T01:48:53;6.70;;;5.00;;
13959;SDS011;7052;51.050;3.716;2023-07-28T01:51:20;5.47;;;4.88;;
13959;SDS011;7052;51.050;3.716;2023-07-28T01:53:47;12.65;;;5.25;;
13959;SDS011;7052;51.050;3.716;2023-07-28T01:56:14;6.75;;;5.30;;
13959;SDS011;7052;51.050;3.716;2023-07-28T01:58:41;5.68;;;4.60;;
13959;SDS011;7052;51.050;3.716;2023-07-28T02:01:09;5.72;;;5.15;;
13959;SDS011;7052;51.050;3.716;2023-07-28T02:03:39;5.68;;;5.05;;
13959;SDS011;7052;51.050;3.716;2023-07-28T02:06:06;6.72;;;5.47;;
13959;SDS011;7052;51.050;3.716;2023-07-28T02:08:33;7.57;;;5.32;;
13959;SDS011;7052;51.050;3.716;2023-07-28T02:11:02;5.75;;;5.00;;
13959;SDS011;7052;51.050;3.716;2023-07-28T02:13:31;6.68;;;5.35;;
13959;SDS011;7052;51.050;3.716;2023-07-28T02:15:58;6.00;;;5.40;;
13959;SDS011;7052;51.050;3.716;2023-07-28T02:18:26;6.28;;;5.45;;
13959;SDS011;7052;51.050;3.716;2023-07-28T02:20:54;6.18;;;5.57;;
13959;SDS011;7052;51.050;3.716;2023-07-28T02:23:21;6.85;;;5.78;;
13959;SDS011;7052;51.050;3.716;2023-07-28T02:25:49;5.80;;;5.22;;
13959;SDS011;7052;51.050;3.716;2023-07-28T02:28:16;5.75;;;5.18;;
13959;SDS011;7052;51.050;3.716;2023-07-28T02:30:43;7.25;;;5.32;;
13959;SDS011;7052;51.050;3.716;2023-07-28T02:33:12;6.10;;;5.50;;
13959;SDS011;7052;51.050;3.716;2023-07-28T02:35:41;7.18;;;5.30;;
13959;SDS011;7052;51.050;3.716;2023-07-28T02:38:08;5.75;;;5.15;;
13959;SDS011;7052;51.050;3.716;2023-07-28T02:40:35;6.07;;;4.68;;
13959;SDS011;7052;51.050;3.716;2023-07-28T02:43:02;5.40;;;4.72;;
13959;SDS011;7052;51.050;3.716;2023-07-28T02:45:29;5.50;;;4.85;;
13959;SDS011;7052;51.050;3.716;2023-07-28T02:47:56;5.43;;;4.40;;
13959;SDS011;7052;51.050;3.716;2023-07-28T02:50:23;6.03;;;4.13;;
13959;SDS011;7052;51.050;3.716;2023-07-28T02:52:51;5.95;;;4.22;;
13959;SDS011;7052;51.050;3.716;2023-07-28T02:55:21;5.53;;;4.40;;
13959;SDS011;7052;51.050;3.716;2023-07-28T02:57:48;5.82;;;4.10;;
13959;SDS011;7052;51.050;3.716;2023-07-28T03:00:16;6.13;;;4.40;;
13959;SDS011;7052;51.050;3.716;2023-07-28T03:02:43;5.45;;;4.40;;
13959;SDS011;7052;51.050;3.716;2023-07-28T03:05:10;4.35;;;3.95;;
13959;SDS011;7052;51.050;3.716;2023-07-28T03:07:37;5.35;;;3.80;;
13959;SDS011;7052;51.050;3.716;2023-07-28T03:10:07;4.60;;;3.80;;
13959;SDS011;7052;51.050;3.716;2023-07-28T03:12:35;6.55;;;3.35;;
13959;SDS011;7052;51.050;3.716;2023-07-28T03:15:02;3.97;;;3.58;;
13959;SDS011;7052;51.050;3.716;2023-07-28T03:17:29;4.50;;;3.75;;
13959;SDS011;7052;51.050;3.716;2023-07-28T03:19:59;4.00;;;3.20;;
13959;SDS011;7052;51.050;3.716;2023-07-28T03:22:26;6.30;;;3.72;;
13959;SDS011;7052;51.050;3.716;2023-07-28T03:24:54;3.72;;;2.97;;
13959;SDS011;7052;51.050;3.716;2023-07-28T03:27:24;3.58;;;3.28;;
13959;SDS011;7052;51.050;3.716;2023-07-28T03:29:53;3.55;;;3.03;;
13959;SDS011;7052;51.050;3.716;2023-07-28T03:32:20;4.63;;;3.20;;
13959;SDS011;7052;51.050;3.716;2023-07-28T03:34:47;3.53;;;3.20;;
13959;SDS011;7052;51.050;3.716;2023-07-28T03:37:14;4.47;;;3.08;;
13959;SDS011;7052;51.050;3.716;2023-07-28T03:39:44;4.25;;;2.83;;
13959;SDS011;7052;51.050;3.716;2023-07-28T03:42:12;3.30;;;2.97;;
13959;SDS011;7052;51.050;3.716;2023-07-28T03:44:41;3.53;;;3.00;;
13959;SDS011;7052;51.050;3.716;2023-07-28T03:47:09;3.30;;;2.85;;
13959;SDS011;7052;51.050;3.716;2023-07-28T03:49:36;4.55;;;3.50;;
13959;SDS011;7052;51.050;3.716;2023-07-28T03:52:04;3.50;;;3.10;;
13959;SDS011;7052;51.050;3.716;2023-07-28T03:54:33;4.47;;;3.05;;
13959;SDS011;7052;51.050;3.716;2023-07-28T03:57:00;4.13;;;3.00;;
13959;SDS011;7052;51.050;3.716;2023-07-28T03:59:27;3.10;;;2.80;;
13959;SDS011;7052;51.050;3.716;2023-07-28T04:01:57;6.03;;;2.92;;
13959;SDS011;7052;51.050;3.716;2023-07-28T04:04:24;4.05;;;2.78;;
13959;SDS011;7052;51.050;3.716;2023-07-28T04:06:52;3.20;;;2.80;;
13959;SDS011;7052;51.050;3.716;2023-07-28T04:09:19;2.90;;;2.60;;
13959;SDS011;7052;51.050;3.716;2023-07-28T04:11:49;3.28;;;2.70;;
13959;SDS011;7052;51.050;3.716;2023-07-28T04:14:18;4.15;;;2.50;;
13959;SDS011;7052;51.050;3.716;2023-07-28T04:16:45;3.15;;;2.65;;
13959;SDS011;7052;51.050;3.716;2023-07-28T04:19:13;3.60;;;2.63;;
13959;SDS011;7052;51.050;3.716;2023-07-28T04:21:40;4.53;;;2.67;;
13959;SDS011;7052;51.050;3.716;2023-07-28T04:24:08;3.15;;;2.75;;
13959;SDS011;7052;51.050;3.716;2023-07-28T04:26:37;3.20;;;2.88;;
13959;SDS011;7052;51.050;3.716;2023-07-28T04:29:05;3.00;;;2.80;;
13959;SDS011;7052;51.050;3.716;2023-07-28T04:31:31;3.30;;;3.00;;
13959;SDS011;7052;51.050;3.716;2023-07-28T04:33:58;4.50;;;3.20;;
13959;SDS011;7052;51.050;3.716;2023-07-28T04:36:27;3.75;;;3.42;;
13959;SDS011;7052;51.050;3.716;2023-07-28T04:38:54;3.40;;;3.10;;
13959;SDS011;7052;51.050;3.716;2023-07-28T04:41:21;3.60;;;3.22;;
13959;SDS011;7052;51.050;3.716;2023-07-28T04:43:51;3.83;;;3.53;;
13959;SDS011;7052;51.050;3.716;2023-07-28T04:46:18;4.15;;;3.67;;
13959;SDS011;7052;51.050;3.716;2023-07-28T04:48:46;3.63;;;3.33;;
13959;SDS011;7052;51.050;3.716;2023-07-28T04:51:13;4.43;;;4.03;;
13959;SDS011;7052;51.050;3.716;2023-07-28T04:53:42;5.65;;;3.95;;
13959;SDS011;7052;51.050;3.716;2023-07-28T04:56:09;4.97;;;4.20;;
13959;SDS011;7052;51.050;3.716;2023-07-28T04:58:36;5.68;;;4.65;;
13959;SDS011;7052;51.050;3.716;2023-07-28T05:01:03;5.38;;;4.85;;
13959;SDS011;7052;51.050;3.716;2023-07-28T05:03:35;4.90;;;4.40;;
13959;SDS011;7052;51.050;3.716;2023-07-28T05:06:02;4.40;;;4.00;;
13959;SDS011;7052;51.050;3.716;2023-07-28T05:08:30;4.47;;;3.85;;
13959;SDS011;7052;51.050;3.716;2023-07-28T05:10:58;4.40;;;4.00;;
13959;SDS011;7052;51.050;3.716;2023-07-28T05:13:25;5.72;;;4.53;;
13959;SDS011;7052;51.050;3.716;2023-07-28T05:15:53;5.63;;;4.38;;
13959;SDS011;7052;51.050;3.716;2023-07-28T05:18:21;5.53;;;4.00;;
13959;SDS011;7052;51.050;3.716;2023-07-28T05:20:49;4.88;;;4.10;;
13959;SDS011;7052;51.050;3.716;2023-07-28T05:23:18;6.43;;;4.70;;
13959;SDS011;7052;51.050;3.716;2023-07-28T05:25:45;6.22;;;4.68;;
13959;SDS011;7052;51.050;3.716;2023-07-28T05:28:13;5.28;;;4.78;;
13959;SDS011;7052;51.050;3.716;2023-07-28T05:30:41;5.28;;;4.72;;
13959;SDS011;7052;51.050;3.716;2023-07-28T05:33:10;5.57;;;4.93;;
13959;SDS011;7052;51.050;3.716;2023-07-28T05:35:37;5.13;;;4.63;;
13959;SDS011;7052;51.050;3.716;2023-07-28T05:38:04;5.40;;;4.32;;
13959;SDS011;7052;51.050;3.716;2023-07-28T05:40:32;7.05;;;5.68;;
13959;SDS011;7052;51.050;3.716;2023-07-28T05:42:59;5.65;;;5.15;;
13959;SDS011;7052;51.050;3.716;2023-07-28T05:45:28;5.40;;;4.90;;
13959;SDS011;7052;51.050;3.716;2023-07-28T05:47:55;5.60;;;5.10;;
13959;SDS011;7052;51.050;3.716;2023-07-28T05:50:25;6.30;;;5.65;;
13959;SDS011;7052;51.050;3.716;2023-07-28T05:52:52;6.10;;;5.47;;
13959;SDS011;7052;51.050;3.716;2023-07-28T05:55:20;5.70;;;5.00;;
13959;SDS011;7052;51.050;3.716;2023-07-28T05:57:48;5.68;;;4.75;;
13959;SDS011;7052;51.050;3.716;2023-07-28T06:00:15;4.82;;;4.43;;
13959;SDS011;7052;51.050;3.716;2023-07-28T06:02:44;4.60;;;3.85;;
13959;SDS011;7052;51.050;3.716;2023-07-28T06:05:12;4.88;;;4.30;;
13959;SDS011;7052;51.050;3.716;2023-07-28T06:07:39;3.88;;;3.58;;
13959;SDS011;7052;51.050;3.716;2023-07-28T06:10:07;4.40;;;4.00;;
13959;SDS011;7052;51.050;3.716;2023-07-28T06:12:34;3.80;;;3.40;;
13959;SDS011;7052;51.050;3.716;2023-07-28T06:15:02;3.70;;;3.40;;
13959;SDS011;7052;51.050;3.716;2023-07-28T06:17:30;3.60;;;3.20;;
13959;SDS011;7052;51.050;3.716;2023-07-28T06:19:59;3.80;;;3.42;;
13959;SDS011;7052;51.050;3.716;2023-07-28T06:22:29;4.85;;;3.60;;
13959;SDS011;7052;51.050;3.716;2023-07-28T06:24:59;5.55;;;3.80;;
13959;SDS011;7052;51.050;3.716;2023-07-28T06:27:25;5.13;;;3.95;;
13959;SDS011;7052;51.050;3.716;2023-07-28T06:29:53;6.20;;;4.22;;
13959;SDS011;7052;51.050;3.716;2023-07-28T06:32:20;8.05;;;4.38;;
13959;SDS011;7052;51.050;3.716;2023-07-28T06:34:48;6.22;;;4.43;;
13959;SDS011;7052;51.050;3.716;2023-07-28T06:37:16;7.10;;;4.90;;
13959;SDS011;7052;51.050;3.716;2023-07-28T06:39:44;10.40;;;4.50;;
13959;SDS011;7052;51.050;3.716;2023-07-28T06:42:11;4.82;;;4.20;;
13959;SDS011;7052;51.050;3.716;2023-07-28T06:44:38;7.30;;;4.55;;
13959;SDS011;7052;51.050;3.716;2023-07-28T06:47:05;6.47;;;4.05;;
13959;SDS011;7052;51.050;3.716;2023-07-28T06:49:34;4.47;;;3.85;;
13959;SDS011;7052;51.050;3.716;2023-07-28T06:52:01;6.18;;;4.22;;
13959;SDS011;7052;51.050;3.716;2023-07-28T06:54:29;5.25;;;4.38;;
13959;SDS011;7052;51.050;3.716;2023-07-28T06:56:57;4.65;;;4.05;;
13959;SDS011;7052;51.050;3.716;2023-07-28T06:59:24;5.72;;;4.10;;
13959;SDS011;7052;51.050;3.716;2023-07-28T07:01:51;4.80;;;4.18;;
13959;SDS011;7052;51.050;3.716;2023-07-28T07:04:18;6.03;;;4.00;;
13959;SDS011;7052;51.050;3.716;2023-07-28T07:06:46;7.05;;;4.03;;
13959;SDS011;7052;51.050;3.716;2023-07-28T07:09:14;5.90;;;4.10;;
13959;SDS011;7052;51.050;3.716;2023-07-28T07:11:42;8.75;;;4.03;;
13959;SDS011;7052;51.050;3.716;2023-07-28T07:14:11;5.95;;;4.32;;
13959;SDS011;7052;51.050;3.716;2023-07-28T07:16:41;5.57;;;4.50;;
13959;SDS011;7052;51.050;3.716;2023-07-28T07:19:12;5.60;;;4.10;;
13959;SDS011;7052;51.050;3.716;2023-07-28T07:21:42;5.93;;;3.75;;
13959;SDS011;7052;51.050;3.716;2023-07-28T07:24:10;5.20;;;4.32;;
13959;SDS011;7052;51.050;3.716;2023-07-28T07:26:38;4.68;;;4.15;;
13959;SDS011;7052;51.050;3.716;2023-07-28T07:29:07;5.13;;;4.10;;
13959;SDS011;7052;51.050;3.716;2023-07-28T07:31:34;5.53;;;4.22;;
13959;SDS011;7052;51.050;3.716;2023-07-28T07:34:01;6.22;;;3.85;;
13959;SDS011;7052;51.050;3.716;2023-07-28T07:36:29;11.90;;;4.80;;
13959;SDS011;7052;51.050;3.716;2023-07-28T07:38:57;6.40;;;4.22;;
13959;SDS011;7052;51.050;3.716;2023-07-28T07:41:24;9.40;;;4.07;;
13959;SDS011;7052;51.050;3.716;2023-07-28T07:43:52;8.40;;;4.22;;
13959;SDS011;7052;51.050;3.716;2023-07-28T07:46:26;5.72;;;3.50;;
13959;SDS011;7052;51.050;3.716;2023-07-28T07:48:53;8.50;;;3.80;;
13959;SDS011;7052;51.050;3.716;2023-07-28T07:51:34;4.82;;;3.58;;
13959;SDS011;7052;51.050;3.716;2023-07-28T07:54:05;5.97;;;3.63;;
13959;SDS011;7052;51.050;3.716;2023-07-28T07:56:47;6.18;;;4.13;;
13959;SDS011;7052;51.050;3.716;2023-07-28T07:59:28;6.28;;;3.55;;
13959;SDS011;7052;51.050;3.716;2023-07-28T08:11:23;6.88;;;4.03;;
13959;SDS011;7052;51.050;3.716;2023-07-28T08:13:50;6.30;;;4.25;;
13959;SDS011;7052;51.050;3.716;2023-07-28T08:16:18;5.90;;;4.68;;
13959;SDS011;7052;51.050;3.716;2023-07-28T08:18:45;5.38;;;4.63;;
13959;SDS011;7052;51.050;3.716;2023-07-28T08:21:12;8.43;;;4.57;;
13959;SDS011;7052;51.050;3.716;2023-07-28T08:23:39;5.22;;;4.65;;
13959;SDS011;7052;51.050;3.716;2023-07-28T08:26:10;13.85;;;5.47;;
13959;SDS011;7052;51.050;3.716;2023-07-28T08:28:41;6.38;;;4.03;;
13959;SDS011;7052;51.050;3.716;2023-07-28T08:31:09;5.65;;;4.30;;
13959;SDS011;7052;51.050;3.716;2023-07-28T08:33:36;4.95;;;4.15;;
13959;SDS011;7052;51.050;3.716;2023-07-28T08:36:04;10.18;;;5.20;;
13959;SDS011;7052;51.050;3.716;2023-07-28T08:38:30;7.75;;;4.88;;
13959;SDS011;7052;51.050;3.716;2023-07-28T08:40:58;6.03;;;4.90;;
13959;SDS011;7052;51.050;3.716;2023-07-28T08:43:26;7.50;;;4.40;;
13959;SDS011;7052;51.050;3.716;2023-07-28T08:45:56;7.07;;;4.70;;
13959;SDS011;7052;51.050;3.716;2023-07-28T08:48:23;6.18;;;4.70;;
13959;SDS011;7052;51.050;3.716;2023-07-28T08:50:50;4.97;;;3.90;;
13959;SDS011;7052;51.050;3.716;2023-07-28T08:53:18;5.40;;;4.22;;
13959;SDS011;7052;51.050;3.716;2023-07-28T08:55:47;5.93;;;3.80;;
13959;SDS011;7052;51.050;3.716;2023-07-28T08:58:14;4.00;;;3.50;;
13959;SDS011;7052;51.050;3.716;2023-07-28T09:00:42;3.92;;;3.53;;
13959;SDS011;7052;51.050;3.716;2023-07-28T09:03:13;6.65;;;3.67;;
13959;SDS011;7052;51.050;3.716;2023-07-28T09:05:42;3.80;;;3.22;;
13959;SDS011;7052;51.050;3.716;2023-07-28T09:08:11;6.25;;;3.70;;
13959;SDS011;7052;51.050;3.716;2023-07-28T09:10:42;6.10;;;3.67;;
13959;SDS011;7052;51.050;3.716;2023-07-28T09:13:10;11.02;;;4.45;;
13959;SDS011;7052;51.050;3.716;2023-07-28T09:15:39;5.82;;;3.88;;
13959;SDS011;7052;51.050;3.716;2023-07-28T09:18:07;6.45;;;3.30;;
13959;SDS011;7052;51.050;3.716;2023-07-28T09:20:37;5.35;;;3.70;;
13959;SDS011;7052;51.050;3.716;2023-07-28T09:23:06;4.18;;;3.20;;
13959;SDS011;7052;51.050;3.716;2023-07-28T09:25:34;3.28;;;2.72;;
13959;SDS011;7052;51.050;3.716;2023-07-28T09:28:03;3.72;;;2.70;;
13959;SDS011;7052;51.050;3.716;2023-07-28T09:30:42;9.23;;;3.33;;
13959;SDS011;7052;51.050;3.716;2023-07-28T09:33:12;7.55;;;2.85;;
13959;SDS011;7052;51.050;3.716;2023-07-28T09:35:48;4.68;;;2.85;;
13959;SDS011;7052;51.050;3.716;2023-07-28T09:38:16;3.65;;;2.72;;
13959;SDS011;7052;51.050;3.716;2023-07-28T09:40:46;7.45;;;3.38;;
13959;SDS011;7052;51.050;3.716;2023-07-28T09:43:15;5.70;;;3.05;;
13959;SDS011;7052;51.050;3.716;2023-07-28T09:45:42;6.43;;;3.20;;
13959;SDS011;7052;51.050;3.716;2023-07-28T09:48:10;3.45;;;2.60;;
13959;SDS011;7052;51.050;3.716;2023-07-28T09:50:40;5.43;;;3.03;;
13959;SDS011;7052;51.050;3.716;2023-07-28T09:53:11;4.00;;;2.50;;
13959;SDS011;7052;51.050;3.716;2023-07-28T09:55:39;3.00;;;2.70;;
13959;SDS011;7052;51.050;3.716;2023-07-28T09:58:09;6.38;;;3.55;;
13959;SDS011;7052;51.050;3.716;2023-07-28T10:03:08;2.85;;;2.42;;
13959;SDS011;7052;51.050;3.716;2023-07-28T10:05:36;5.10;;;2.70;;
13959;SDS011;7052;51.050;3.716;2023-07-28T10:08:13;7.40;;;2.80;;
13959;SDS011;7052;51.050;3.716;2023-07-28T10:10:40;5.00;;;2.72;;
13959;SDS011;7052;51.050;3.716;2023-07-28T10:13:18;3.72;;;2.65;;
13959;SDS011;7052;51.050;3.716;2023-07-28T10:15:46;4.18;;;2.40;;
13959;SDS011;7052;51.050;3.716;2023-07-28T10:18:14;3.50;;;2.38;;
13959;SDS011;7052;51.050;3.716;2023-07-28T10:20:42;4.43;;;2.42;;
13959;SDS011;7052;51.050;3.716;2023-07-28T10:23:16;2.67;;;2.30;;
13959;SDS011;7052;51.050;3.716;2023-07-28T10:25:47;2.30;;;2.10;;
13959;SDS011;7052;51.050;3.716;2023-07-28T10:28:31;3.85;;;2.20;;
13959;SDS011;7052;51.050;3.716;2023-07-28T10:31:04;4.82;;;2.20;;
13959;SDS011;7052;51.050;3.716;2023-07-28T10:33:36;2.85;;;2.00;;
13959;SDS011;7052;51.050;3.716;2023-07-28T10:36:17;3.15;;;2.20;;
13959;SDS011;7052;51.050;3.716;2023-07-28T10:39:01;4.55;;;2.10;;
13959;SDS011;7052;51.050;3.716;2023-07-28T10:41:40;1.98;;;1.73;;
13959;SDS011;7052;51.050;3.716;2023-07-28T10:44:28;2.25;;;1.60;;
13959;SDS011;7052;51.050;3.716;2023-07-28T10:46:56;1.70;;;1.45;;
13959;SDS011;7052;51.050;3.716;2023-07-28T10:49:28;3.58;;;2.13;;
13959;SDS011;7052;51.050;3.716;2023-07-28T10:51:55;2.00;;;1.40;;
13959;SDS011;7052;51.050;3.716;2023-07-28T10:54:23;1.80;;;1.58;;
13959;SDS011;7052;51.050;3.716;2023-07-28T10:56:50;5.10;;;1.90;;
13959;SDS011;7052;51.050;3.716;2023-07-28T10:59:17;5.07;;;1.88;;
13959;SDS011;7052;51.050;3.716;2023-07-28T11:01:45;6.47;;;2.20;;
13959;SDS011;7052;51.050;3.716;2023-07-28T11:04:13;4.00;;;1.70;;
13959;SDS011;7052;51.050;3.716;2023-07-28T11:06:45;5.20;;;1.85;;
13959;SDS011;7052;51.050;3.716;2023-07-28T11:09:15;4.18;;;1.67;;
13959;SDS011;7052;51.050;3.716;2023-07-28T11:11:45;9.60;;;2.58;;
13959;SDS011;7052;51.050;3.716;2023-07-28T11:14:14;3.58;;;1.40;;
13959;SDS011;7052;51.050;3.716;2023-07-28T11:16:42;3.85;;;2.10;;
13959;SDS011;7052;51.050;3.716;2023-07-28T11:19:12;2.72;;;2.00;;
13959;SDS011;7052;51.050;3.716;2023-07-28T11:21:45;5.88;;;1.88;;
13959;SDS011;7052;51.050;3.716;2023-07-28T11:24:17;4.43;;;1.90;;
13959;SDS011;7052;51.050;3.716;2023-07-28T11:26:47;3.70;;;2.13;;
13959;SDS011;7052;51.050;3.716;2023-07-28T11:29:16;4.72;;;2.00;;
13959;SDS011;7052;51.050;3.716;2023-07-28T11:31:45;4.30;;;2.13;;
13959;SDS011;7052;51.050;3.716;2023-07-28T11:34:17;4.00;;;2.30;;
13959;SDS011;7052;51.050;3.716;2023-07-28T11:36:45;3.85;;;2.30;;
13959;SDS011;7052;51.050;3.716;2023-07-28T11:39:12;2.38;;;2.08;;
13959;SDS011;7052;51.050;3.716;2023-07-28T11:41:41;2.40;;;1.85;;
13959;SDS011;7052;51.050;3.716;2023-07-28T11:44:10;2.80;;;1.88;;
13959;SDS011;7052;51.050;3.716;2023-07-28T11:46:39;3.97;;;2.10;;
13959;SDS011;7052;51.050;3.716;2023-07-28T11:49:12;2.20;;;1.98;;
13959;SDS011;7052;51.050;3.716;2023-07-28T11:51:41;3.60;;;2.20;;
13959;SDS011;7052;51.050;3.716;2023-07-28T11:54:10;6.15;;;2.10;;
13959;SDS011;7052;51.050;3.716;2023-07-28T11:56:40;3.92;;;2.33;;
13959;SDS011;7052;51.050;3.716;2023-07-28T11:59:14;2.83;;;2.10;;
13959;SDS011;7052;51.050;3.716;2023-07-28T12:01:52;4.63;;;2.08;;
13959;SDS011;7052;51.050;3.716;2023-07-28T12:04:23;4.55;;;2.10;;
13959;SDS011;7052;51.050;3.716;2023-07-28T12:07:00;4.13;;;2.45;;
13959;SDS011;7052;51.050;3.716;2023-07-28T12:09:31;3.70;;;2.20;;
13959;SDS011;7052;51.050;3.716;2023-07-28T12:11:58;2.78;;;2.13;;
13959;SDS011;7052;51.050;3.716;2023-07-28T12:14:34;4.43;;;2.10;;
13959;SDS011;7052;51.050;3.716;2023-07-28T12:17:01;3.05;;;2.28;;
13959;SDS011;7052;51.050;3.716;2023-07-28T12:19:30;3.55;;;3.25;;
13959;SDS011;7052;51.050;3.716;2023-07-28T12:21:57;2.15;;;1.95;;
13959;SDS011;7052;51.050;3.716;2023-07-28T12:24:24;4.03;;;2.13;;
13959;SDS011;7052;51.050;3.716;2023-07-28T12:26:57;4.72;;;2.20;;
13959;SDS011;7052;51.050;3.716;2023-07-28T12:29:43;4.93;;;2.25;;
13959;SDS011;7052;51.050;3.716;2023-07-28T12:32:10;2.90;;;2.15;;
13959;SDS011;7052;51.050;3.716;2023-07-28T12:34:37;4.47;;;1.80;;
13959;SDS011;7052;51.050;3.716;2023-07-28T12:37:05;7.28;;;2.47;;
13959;SDS011;7052;51.050;3.716;2023-07-28T12:39:32;7.50;;;2.38;;
13959;SDS011;7052;51.050;3.716;2023-07-28T12:42:00;6.47;;;2.10;;
13959;SDS011;7052;51.050;3.716;2023-07-28T12:44:27;2.15;;;1.70;;
13959;SDS011;7052;51.050;3.716;2023-07-28T12:46:55;4.70;;;2.00;;
13959;SDS011;7052;51.050;3.716;2023-07-28T12:49:22;3.53;;;2.20;;
13959;SDS011;7052;51.050;3.716;2023-07-28T12:51:49;6.57;;;2.30;;
13959;SDS011;7052;51.050;3.716;2023-07-28T12:54:17;4.35;;;2.30;;
13959;SDS011;7052;51.050;3.716;2023-07-28T12:56:50;7.80;;;2.20;;
13959;SDS011;7052;51.050;3.716;2023-07-28T12:59:17;6.47;;;2.17;;
13959;SDS011;7052;51.050;3.716;2023-07-28T13:01:44;4.90;;;2.28;;
13959;SDS011;7052;51.050;3.716;2023-07-28T13:04:15;6.22;;;2.28;;
13959;SDS011;7052;51.050;3.716;2023-07-28T13:06:42;3.38;;;1.90;;
13959;SDS011;7052;51.050;3.716;2023-07-28T13:09:11;2.75;;;1.92;;
13959;SDS011;7052;51.050;3.716;2023-07-28T13:11:39;6.93;;;2.25;;
13959;SDS011;7052;51.050;3.716;2023-07-28T13:14:06;5.35;;;2.10;;
13959;SDS011;7052;51.050;3.716;2023-07-28T13:16:34;6.35;;;2.50;;
13959;SDS011;7052;51.050;3.716;2023-07-28T13:19:03;2.03;;;1.73;;
13959;SDS011;7052;51.050;3.716;2023-07-28T13:21:33;4.07;;;2.17;;
13959;SDS011;7052;51.050;3.716;2023-07-28T13:24:00;3.33;;;1.80;;
13959;SDS011;7052;51.050;3.716;2023-07-28T13:26:29;6.03;;;2.33;;
13959;SDS011;7052;51.050;3.716;2023-07-28T13:28:58;2.35;;;1.90;;
13959;SDS011;7052;51.050;3.716;2023-07-28T13:31:27;4.03;;;2.10;;
13959;SDS011;7052;51.050;3.716;2023-07-28T13:33:54;3.70;;;2.45;;
13959;SDS011;7052;51.050;3.716;2023-07-28T13:36:22;6.13;;;2.60;;
13959;SDS011;7052;51.050;3.716;2023-07-28T13:38:52;2.40;;;1.88;;
13959;SDS011;7052;51.050;3.716;2023-07-28T13:41:19;2.22;;;1.90;;
13959;SDS011;7052;51.050;3.716;2023-07-28T13:43:46;5.63;;;2.90;;
13959;SDS011;7052;51.050;3.716;2023-07-28T13:46:13;4.05;;;1.90;;
13959;SDS011;7052;51.050;3.716;2023-07-28T13:48:40;4.97;;;2.20;;
13959;SDS011;7052;51.050;3.716;2023-07-28T13:51:07;10.40;;;2.60;;
13959;SDS011;7052;51.050;3.716;2023-07-28T13:53:35;6.40;;;2.58;;
13959;SDS011;7052;51.050;3.716;2023-07-28T13:56:03;3.22;;;2.20;;
13959;SDS011;7052;51.050;3.716;2023-07-28T13:58:34;3.85;;;2.20;;
13959;SDS011;7052;51.050;3.716;2023-07-28T14:01:02;2.92;;;1.90;;
13959;SDS011;7052;51.050;3.716;2023-07-28T14:03:29;4.13;;;1.80;;
13959;SDS011;7052;51.050;3.716;2023-07-28T14:05:57;2.58;;;1.70;;
13959;SDS011;7052;51.050;3.716;2023-07-28T14:08:24;3.65;;;2.08;;
13959;SDS011;7052;51.050;3.716;2023-07-28T14:10:53;3.53;;;1.88;;
13959;SDS011;7052;51.050;3.716;2023-07-28T14:13:21;2.33;;;1.80;;
13959;SDS011;7052;51.050;3.716;2023-07-28T14:15:49;4.13;;;2.00;;
13959;SDS011;7052;51.050;3.716;2023-07-28T14:18:23;4.05;;;1.98;;
13959;SDS011;7052;51.050;3.716;2023-07-28T14:20:50;3.00;;;2.10;;
13959;SDS011;7052;51.050;3.716;2023-07-28T14:23:20;15.02;;;3.03;;
13959;SDS011;7052;51.050;3.716;2023-07-28T14:25:48;2.10;;;1.80;;
13959;SDS011;7052;51.050;3.716;2023-07-28T14:28:16;3.10;;;2.22;;
13959;SDS011;7052;51.050;3.716;2023-07-28T14:30:46;3.40;;;2.20;;
13959;SDS011;7052;51.050;3.716;2023-07-28T14:33:13;6.40;;;2.10;;
13959;SDS011;7052;51.050;3.716;2023-07-28T14:35:41;3.28;;;2.30;;
13959;SDS011;7052;51.050;3.716;2023-07-28T14:38:08;3.60;;;1.98;;
13959;SDS011;7052;51.050;3.716;2023-07-28T14:40:38;2.38;;;1.80;;
13959;SDS011;7052;51.050;3.716;2023-07-28T14:43:09;4.63;;;2.08;;
13959;SDS011;7052;51.050;3.716;2023-07-28T14:45:36;4.45;;;1.90;;
13959;SDS011;7052;51.050;3.716;2023-07-28T14:48:06;4.13;;;1.90;;
13959;SDS011;7052;51.050;3.716;2023-07-28T14:50:34;3.47;;;2.00;;
13959;SDS011;7052;51.050;3.716;2023-07-28T14:53:10;3.03;;;2.00;;
13959;SDS011;7052;51.050;3.716;2023-07-28T14:55:54;4.93;;;2.22;;
13959;SDS011;7052;51.050;3.716;2023-07-28T14:58:22;2.53;;;1.80;;
13959;SDS011;7052;51.050;3.716;2023-07-28T15:00:50;3.72;;;2.08;;
13959;SDS011;7052;51.050;3.716;2023-07-28T15:03:19;3.63;;;2.08;;
13959;SDS011;7052;51.050;3.716;2023-07-28T15:05:47;3.95;;;1.90;;
13959;SDS011;7052;51.050;3.716;2023-07-28T15:08:14;2.13;;;1.90;;
13959;SDS011;7052;51.050;3.716;2023-07-28T15:10:42;9.45;;;2.50;;
13959;SDS011;7052;51.050;3.716;2023-07-28T15:13:09;6.32;;;2.17;;
13959;SDS011;7052;51.050;3.716;2023-07-28T15:15:42;2.65;;;2.00;;
13959;SDS011;7052;51.050;3.716;2023-07-28T15:18:09;3.05;;;1.85;;
13959;SDS011;7052;51.050;3.716;2023-07-28T15:20:39;1.60;;;1.50;;
13959;SDS011;7052;51.050;3.716;2023-07-28T15:23:08;3.35;;;2.05;;